sensor_id;sensor_type;location;lat;lon;timestamp;P1;durP1;ratioP1;P2;durP2;ratioP2
24216;SDS011;12356;49.386;8.688;2023-04-01T00:01:42;5.93;;;0.70;;
24216;SDS011;12356;49.386;8.688;2023-04-01T00:04:12;2.78;;;0.80;;
24216;SDS011;12356;49.386;8.688;2023-04-01T00:06:43;3.90;;;0.77;;
24216;SDS011;12356;49.386;8.688;2023-04-01T00:09:14;3.25;;;0.80;;
24216;SDS011;12356;49.386;8.688;2023-04-01T00:11:44;3.90;;;0.85;;
24216;SDS011;12356;49.386;8.688;2023-04-01T00:14:15;1.98;;;0.55;;
24216;SDS011;12356;49.386;8.688;2023-04-01T00:16:46;2.58;;;0.90;;
24216;SDS011;12356;49.386;8.688;2023-04-01T00:19:16;2.15;;;0.75;;
24216;SDS011;12356;49.386;8.688;2023-04-01T00:21:47;3.40;;;0.68;;
24216;SDS011;12356;49.386;8.688;2023-04-01T00:24:17;2.75;;;0.80;;
24216;SDS011;12356;49.386;8.688;2023-04-01T00:26:49;5.93;;;1.08;;
24216;SDS011;12356;49.386;8.688;2023-04-01T00:29:19;2.45;;;0.70;;
24216;SDS011;12356;49.386;8.688;2023-04-01T00:31:50;2.92;;;0.80;;
24216;SDS011;12356;49.386;8.688;2023-04-01T00:34:20;4.45;;;0.70;;
24216;SDS011;12356;49.386;8.688;2023-04-01T00:36:51;4.50;;;1.02;;
24216;SDS011;12356;49.386;8.688;2023-04-01T00:39:22;8.73;;;1.40;;
24216;SDS011;12356;49.386;8.688;2023-04-01T00:41:53;3.00;;;0.70;;
24216;SDS011;12356;49.386;8.688;2023-04-01T00:44:24;5.07;;;0.80;;
24216;SDS011;12356;49.386;8.688;2023-04-01T00:46:57;2.95;;;0.73;;
24216;SDS011;12356;49.386;8.688;2023-04-01T00:49:32;4.03;;;0.85;;
24216;SDS011;12356;49.386;8.688;2023-04-01T00:52:07;3.30;;;0.75;;
24216;SDS011;12356;49.386;8.688;2023-04-01T00:54:41;2.08;;;0.90;;
24216;SDS011;12356;49.386;8.688;2023-04-01T00:57:16;3.65;;;0.90;;
24216;SDS011;12356;49.386;8.688;2023-04-01T00:59:57;4.23;;;0.80;;
24216;SDS011;12356;49.386;8.688;2023-04-01T01:02:29;2.67;;;0.70;;
24216;SDS011;12356;49.386;8.688;2023-04-01T01:05:02;3.00;;;0.77;;
24216;SDS011;12356;49.386;8.688;2023-04-01T01:07:37;3.90;;;0.80;;
24216;SDS011;12356;49.386;8.688;2023-04-01T01:10:18;2.92;;;0.70;;
24216;SDS011;12356;49.386;8.688;2023-04-01T01:13:03;2.75;;;0.70;;
24216;SDS011;12356;49.386;8.688;2023-04-01T01:18:27;6.20;;;1.08;;
24216;SDS011;12356;49.386;8.688;2023-04-01T01:24:39;3.67;;;0.90;;
24216;SDS011;12356;49.386;8.688;2023-04-01T01:27:23;3.95;;;0.80;;
24216;SDS011;12356;49.386;8.688;2023-04-01T01:30:01;7.10;;;0.90;;
24216;SDS011;12356;49.386;8.688;2023-04-01T01:38:09;3.15;;;0.90;;
24216;SDS011;12356;49.386;8.688;2023-04-01T01:40:44;4.72;;;0.93;;
24216;SDS011;12356;49.386;8.688;2023-04-01T01:43:18;4.15;;;0.70;;
24216;SDS011;12356;49.386;8.688;2023-04-01T01:45:55;4.03;;;0.95;;
24216;SDS011;12356;49.386;8.688;2023-04-01T01:48:30;4.20;;;0.70;;
24216;SDS011;12356;49.386;8.688;2023-04-01T01:51:03;4.00;;;1.00;;
24216;SDS011;12356;49.386;8.688;2023-04-01T01:53:36;4.82;;;0.90;;
24216;SDS011;12356;49.386;8.688;2023-04-01T01:56:07;3.92;;;1.02;;
24216;SDS011;12356;49.386;8.688;2023-04-01T01:58:41;4.03;;;0.90;;
24216;SDS011;12356;49.386;8.688;2023-04-01T02:01:16;3.55;;;0.80;;
24216;SDS011;12356;49.386;8.688;2023-04-01T02:03:50;4.70;;;0.80;;
24216;SDS011;12356;49.386;8.688;2023-04-01T02:06:22;4.32;;;1.00;;
24216;SDS011;12356;49.386;8.688;2023-04-01T02:08:59;3.78;;;1.15;;
24216;SDS011;12356;49.386;8.688;2023-04-01T02:11:37;5.82;;;1.20;;
24216;SDS011;12356;49.386;8.688;2023-04-01T02:14:22;5.28;;;0.80;;
24216;SDS011;12356;49.386;8.688;2023-04-01T02:17:00;4.53;;;0.80;;
24216;SDS011;12356;49.386;8.688;2023-04-01T02:19:39;4.07;;;0.80;;
24216;SDS011;12356;49.386;8.688;2023-04-01T02:22:26;4.35;;;0.90;;
24216;SDS011;12356;49.386;8.688;2023-04-01T02:25:01;3.10;;;0.93;;
24216;SDS011;12356;49.386;8.688;2023-04-01T02:27:38;5.78;;;1.23;;
24216;SDS011;12356;49.386;8.688;2023-04-01T02:30:13;4.93;;;0.80;;
24216;SDS011;12356;49.386;8.688;2023-04-01T02:32:46;4.20;;;0.90;;
24216;SDS011;12356;49.386;8.688;2023-04-01T02:35:18;4.88;;;0.80;;
24216;SDS011;12356;49.386;8.688;2023-04-01T02:37:49;3.90;;;0.68;;
24216;SDS011;12356;49.386;8.688;2023-04-01T02:40:20;3.00;;;0.90;;
24216;SDS011;12356;49.386;8.688;2023-04-01T02:42:51;6.13;;;1.10;;
24216;SDS011;12356;49.386;8.688;2023-04-01T02:45:21;3.85;;;0.73;;
24216;SDS011;12356;49.386;8.688;2023-04-01T02:47:52;4.28;;;0.80;;
24216;SDS011;12356;49.386;8.688;2023-04-01T02:50:22;4.63;;;0.82;;
24216;SDS011;12356;49.386;8.688;2023-04-01T02:52:53;2.55;;;0.80;;
24216;SDS011;12356;49.386;8.688;2023-04-01T02:55:23;4.47;;;0.98;;
24216;SDS011;12356;49.386;8.688;2023-04-01T02:57:54;3.90;;;0.77;;
24216;SDS011;12356;49.386;8.688;2023-04-01T03:00:25;3.30;;;0.93;;
24216;SDS011;12356;49.386;8.688;2023-04-01T03:02:55;5.70;;;0.60;;
24216;SDS011;12356;49.386;8.688;2023-04-01T03:05:26;3.45;;;0.70;;
24216;SDS011;12356;49.386;8.688;2023-04-01T03:07:57;4.15;;;1.00;;
24216;SDS011;12356;49.386;8.688;2023-04-01T03:10:27;4.85;;;0.82;;
24216;SDS011;12356;49.386;8.688;2023-04-01T03:12:58;3.00;;;0.57;;
24216;SDS011;12356;49.386;8.688;2023-04-01T03:15:28;6.13;;;0.90;;
24216;SDS011;12356;49.386;8.688;2023-04-01T03:17:59;5.75;;;0.85;;
24216;SDS011;12356;49.386;8.688;2023-04-01T03:20:30;2.60;;;0.95;;
24216;SDS011;12356;49.386;8.688;2023-04-01T03:23:00;5.53;;;0.90;;
24216;SDS011;12356;49.386;8.688;2023-04-01T03:25:31;5.15;;;0.60;;
24216;SDS011;12356;49.386;8.688;2023-04-01T03:28:02;3.63;;;0.63;;
24216;SDS011;12356;49.386;8.688;2023-04-01T03:30:32;3.05;;;0.80;;
24216;SDS011;12356;49.386;8.688;2023-04-01T03:33:03;4.07;;;0.63;;
24216;SDS011;12356;49.386;8.688;2023-04-01T03:35:34;2.60;;;0.60;;
24216;SDS011;12356;49.386;8.688;2023-04-01T03:38:05;4.22;;;1.02;;
24216;SDS011;12356;49.386;8.688;2023-04-01T03:40:36;4.20;;;0.70;;
24216;SDS011;12356;49.386;8.688;2023-04-01T03:43:08;3.57;;;0.80;;
24216;SDS011;12356;49.386;8.688;2023-04-01T03:45:43;2.65;;;0.70;;
24216;SDS011;12356;49.386;8.688;2023-04-01T03:48:14;1.50;;;0.50;;
24216;SDS011;12356;49.386;8.688;2023-04-01T03:50:46;2.05;;;0.50;;
24216;SDS011;12356;49.386;8.688;2023-04-01T03:53:17;2.55;;;0.50;;
24216;SDS011;12356;49.386;8.688;2023-04-01T03:55:47;1.48;;;0.43;;
24216;SDS011;12356;49.386;8.688;2023-04-01T03:58:18;1.42;;;0.55;;
24216;SDS011;12356;49.386;8.688;2023-04-01T04:00:49;1.90;;;0.60;;
24216;SDS011;12356;49.386;8.688;2023-04-01T04:03:19;4.55;;;0.50;;
24216;SDS011;12356;49.386;8.688;2023-04-01T04:05:50;0.80;;;0.40;;
24216;SDS011;12356;49.386;8.688;2023-04-01T04:08:20;1.63;;;0.40;;
24216;SDS011;12356;49.386;8.688;2023-04-01T04:10:55;1.92;;;0.45;;
24216;SDS011;12356;49.386;8.688;2023-04-01T04:13:26;2.97;;;0.43;;
24216;SDS011;12356;49.386;8.688;2023-04-01T04:15:56;1.17;;;0.40;;
24216;SDS011;12356;49.386;8.688;2023-04-01T04:18:27;2.00;;;0.57;;
24216;SDS011;12356;49.386;8.688;2023-04-01T04:20:58;2.30;;;0.70;;
24216;SDS011;12356;49.386;8.688;2023-04-01T04:23:29;4.15;;;0.60;;
24216;SDS011;12356;49.386;8.688;2023-04-01T04:26:01;2.88;;;0.65;;
24216;SDS011;12356;49.386;8.688;2023-04-01T04:28:36;3.88;;;0.55;;
24216;SDS011;12356;49.386;8.688;2023-04-01T04:31:07;3.45;;;0.50;;
24216;SDS011;12356;49.386;8.688;2023-04-01T04:33:38;2.10;;;0.57;;
24216;SDS011;12356;49.386;8.688;2023-04-01T04:36:08;1.55;;;0.60;;
24216;SDS011;12356;49.386;8.688;2023-04-01T04:38:39;2.72;;;0.65;;
24216;SDS011;12356;49.386;8.688;2023-04-01T04:41:10;3.33;;;0.50;;
24216;SDS011;12356;49.386;8.688;2023-04-01T04:43:49;5.30;;;0.70;;
24216;SDS011;12356;49.386;8.688;2023-04-01T04:46:24;3.00;;;0.73;;
24216;SDS011;12356;49.386;8.688;2023-04-01T04:48:55;2.65;;;0.60;;
24216;SDS011;12356;49.386;8.688;2023-04-01T04:51:25;2.08;;;0.73;;
24216;SDS011;12356;49.386;8.688;2023-04-01T04:53:56;1.98;;;0.50;;
24216;SDS011;12356;49.386;8.688;2023-04-01T04:56:26;1.52;;;0.50;;
24216;SDS011;12356;49.386;8.688;2023-04-01T04:58:57;4.15;;;0.65;;
24216;SDS011;12356;49.386;8.688;2023-04-01T05:01:28;3.53;;;0.70;;
24216;SDS011;12356;49.386;8.688;2023-04-01T05:03:59;3.30;;;0.50;;
24216;SDS011;12356;49.386;8.688;2023-04-01T05:06:30;3.80;;;0.68;;
24216;SDS011;12356;49.386;8.688;2023-04-01T05:09:01;3.72;;;0.60;;
24216;SDS011;12356;49.386;8.688;2023-04-01T05:11:31;1.80;;;0.60;;
24216;SDS011;12356;49.386;8.688;2023-04-01T05:14:02;3.58;;;0.68;;
24216;SDS011;12356;49.386;8.688;2023-04-01T05:16:33;2.83;;;0.60;;
24216;SDS011;12356;49.386;8.688;2023-04-01T05:19:03;4.25;;;0.60;;
24216;SDS011;12356;49.386;8.688;2023-04-01T05:21:34;2.63;;;0.60;;
24216;SDS011;12356;49.386;8.688;2023-04-01T05:24:07;3.22;;;0.70;;
24216;SDS011;12356;49.386;8.688;2023-04-01T05:26:39;3.60;;;0.73;;
24216;SDS011;12356;49.386;8.688;2023-04-01T05:29:10;4.07;;;0.85;;
24216;SDS011;12356;49.386;8.688;2023-04-01T05:31:40;6.40;;;0.90;;
24216;SDS011;12356;49.386;8.688;2023-04-01T05:34:11;6.53;;;1.00;;
24216;SDS011;12356;49.386;8.688;2023-04-01T05:36:41;3.92;;;0.85;;
24216;SDS011;12356;49.386;8.688;2023-04-01T05:39:12;2.65;;;0.60;;
24216;SDS011;12356;49.386;8.688;2023-04-01T05:41:43;3.42;;;0.80;;
24216;SDS011;12356;49.386;8.688;2023-04-01T05:44:13;3.67;;;0.77;;
24216;SDS011;12356;49.386;8.688;2023-04-01T05:46:44;4.38;;;0.90;;
24216;SDS011;12356;49.386;8.688;2023-04-01T05:49:14;4.63;;;0.82;;
24216;SDS011;12356;49.386;8.688;2023-04-01T05:51:45;5.00;;;0.70;;
24216;SDS011;12356;49.386;8.688;2023-04-01T05:54:15;4.53;;;0.85;;
24216;SDS011;12356;49.386;8.688;2023-04-01T05:56:46;5.18;;;0.70;;
24216;SDS011;12356;49.386;8.688;2023-04-01T05:59:17;3.70;;;0.80;;
24216;SDS011;12356;49.386;8.688;2023-04-01T06:01:47;5.47;;;0.90;;
24216;SDS011;12356;49.386;8.688;2023-04-01T06:04:18;4.53;;;0.90;;
24216;SDS011;12356;49.386;8.688;2023-04-01T06:06:48;4.95;;;0.80;;
24216;SDS011;12356;49.386;8.688;2023-04-01T06:09:21;3.97;;;1.40;;
24216;SDS011;12356;49.386;8.688;2023-04-01T06:12:08;4.18;;;0.65;;
24216;SDS011;12356;49.386;8.688;2023-04-01T06:26:04;2.60;;;0.73;;
24216;SDS011;12356;49.386;8.688;2023-04-01T06:29:00;5.03;;;0.98;;
24216;SDS011;12356;49.386;8.688;2023-04-01T06:34:49;5.82;;;0.90;;
24216;SDS011;12356;49.386;8.688;2023-04-01T06:43:35;3.35;;;0.80;;
24216;SDS011;12356;49.386;8.688;2023-04-01T06:49:57;4.30;;;0.95;;
24216;SDS011;12356;49.386;8.688;2023-04-01T06:55:19;3.40;;;0.70;;
24216;SDS011;12356;49.386;8.688;2023-04-01T06:57:56;4.93;;;0.70;;
24216;SDS011;12356;49.386;8.688;2023-04-01T07:00:31;3.33;;;0.95;;
24216;SDS011;12356;49.386;8.688;2023-04-01T07:03:10;3.30;;;0.77;;
24216;SDS011;12356;49.386;8.688;2023-04-01T07:05:47;3.13;;;0.82;;
24216;SDS011;12356;49.386;8.688;2023-04-01T07:08:20;3.78;;;0.80;;
24216;SDS011;12356;49.386;8.688;2023-04-01T07:10:56;5.90;;;1.00;;
24216;SDS011;12356;49.386;8.688;2023-04-01T07:13:39;4.20;;;0.88;;
24216;SDS011;12356;49.386;8.688;2023-04-01T07:16:24;1.73;;;0.70;;
24216;SDS011;12356;49.386;8.688;2023-04-01T07:19:02;2.60;;;0.70;;
24216;SDS011;12356;49.386;8.688;2023-04-01T07:21:45;2.53;;;0.85;;
24216;SDS011;12356;49.386;8.688;2023-04-01T07:24:27;2.40;;;0.57;;
24216;SDS011;12356;49.386;8.688;2023-04-01T07:27:03;3.65;;;0.90;;
24216;SDS011;12356;49.386;8.688;2023-04-01T07:29:38;3.05;;;0.93;;
24216;SDS011;12356;49.386;8.688;2023-04-01T07:34:58;0.93;;;0.45;;
24216;SDS011;12356;49.386;8.688;2023-04-01T07:40:20;3.95;;;1.00;;
24216;SDS011;12356;49.386;8.688;2023-04-01T07:43:04;5.03;;;0.80;;
24216;SDS011;12356;49.386;8.688;2023-04-01T07:48:55;4.72;;;0.75;;
24216;SDS011;12356;49.386;8.688;2023-04-01T07:54:49;2.77;;;0.70;;
24216;SDS011;12356;49.386;8.688;2023-04-01T07:57:30;3.33;;;0.50;;
24216;SDS011;12356;49.386;8.688;2023-04-01T08:00:21;4.57;;;0.73;;
24216;SDS011;12356;49.386;8.688;2023-04-01T08:05:53;3.33;;;0.60;;
24216;SDS011;12356;49.386;8.688;2023-04-01T08:08:41;10.75;;;0.70;;
24216;SDS011;12356;49.386;8.688;2023-04-01T08:13:56;1.05;;;0.50;;
24216;SDS011;12356;49.386;8.688;2023-04-01T08:22:02;2.95;;;0.80;;
24216;SDS011;12356;49.386;8.688;2023-04-01T08:27:20;1.83;;;0.60;;
24216;SDS011;12356;49.386;8.688;2023-04-01T08:29:58;3.47;;;0.77;;
24216;SDS011;12356;49.386;8.688;2023-04-01T08:32:55;1.58;;;0.60;;
24216;SDS011;12356;49.386;8.688;2023-04-01T08:38:10;2.55;;;0.60;;
24216;SDS011;12356;49.386;8.688;2023-04-01T08:43:59;1.58;;;0.60;;
24216;SDS011;12356;49.386;8.688;2023-04-01T08:50:26;1.90;;;0.60;;
24216;SDS011;12356;49.386;8.688;2023-04-01T08:53:43;2.57;;;0.50;;
24216;SDS011;12356;49.386;8.688;2023-04-01T08:56:31;1.65;;;0.70;;
24216;SDS011;12356;49.386;8.688;2023-04-01T08:59:19;4.70;;;0.70;;
24216;SDS011;12356;49.386;8.688;2023-04-01T09:01:58;2.05;;;0.50;;
24216;SDS011;12356;49.386;8.688;2023-04-01T09:07:54;2.00;;;0.57;;
24216;SDS011;12356;49.386;8.688;2023-04-01T09:16:18;1.42;;;0.57;;
24216;SDS011;12356;49.386;8.688;2023-04-01T09:19:09;2.47;;;0.63;;
24216;SDS011;12356;49.386;8.688;2023-04-01T09:27:57;2.00;;;0.60;;
24216;SDS011;12356;49.386;8.688;2023-04-01T09:36:43;1.67;;;0.70;;
24216;SDS011;12356;49.386;8.688;2023-04-01T09:42:48;2.05;;;0.57;;
24216;SDS011;12356;49.386;8.688;2023-04-01T09:45:42;1.23;;;0.55;;
24216;SDS011;12356;49.386;8.688;2023-04-01T10:00:05;1.35;;;0.75;;
24216;SDS011;12356;49.386;8.688;2023-04-01T10:05:55;3.97;;;0.73;;
24216;SDS011;12356;49.386;8.688;2023-04-01T10:14:59;0.77;;;0.52;;
24216;SDS011;12356;49.386;8.688;2023-04-01T10:23:53;1.38;;;0.70;;
24216;SDS011;12356;49.386;8.688;2023-04-01T10:30:47;1.75;;;0.73;;
24216;SDS011;12356;49.386;8.688;2023-04-01T10:33:49;1.98;;;1.00;;
24216;SDS011;12356;49.386;8.688;2023-04-01T10:36:40;2.00;;;1.00;;
24216;SDS011;12356;49.386;8.688;2023-04-01T10:39:37;1.30;;;0.80;;
24216;SDS011;12356;49.386;8.688;2023-04-01T10:45:22;2.05;;;1.17;;
24216;SDS011;12356;49.386;8.688;2023-04-01T10:48:31;2.25;;;0.70;;
24216;SDS011;12356;49.386;8.688;2023-04-01T10:51:45;2.35;;;0.70;;
24216;SDS011;12356;49.386;8.688;2023-04-01T10:54:40;1.17;;;0.70;;
24216;SDS011;12356;49.386;8.688;2023-04-01T10:57:35;1.45;;;0.70;;
24216;SDS011;12356;49.386;8.688;2023-04-01T11:06:31;1.55;;;0.57;;
24216;SDS011;12356;49.386;8.688;2023-04-01T11:09:23;1.00;;;0.60;;
24216;SDS011;12356;49.386;8.688;2023-04-01T11:12:18;2.50;;;0.70;;
24216;SDS011;12356;49.386;8.688;2023-04-01T11:15:11;1.42;;;0.63;;
24216;SDS011;12356;49.386;8.688;2023-04-01T11:17:54;1.05;;;0.65;;
24216;SDS011;12356;49.386;8.688;2023-04-01T11:20:54;1.77;;;0.80;;
24216;SDS011;12356;49.386;8.688;2023-04-01T11:29:09;1.15;;;0.70;;
24216;SDS011;12356;49.386;8.688;2023-04-01T11:32:14;1.13;;;0.57;;
24216;SDS011;12356;49.386;8.688;2023-04-01T11:34:56;2.65;;;0.60;;
24216;SDS011;12356;49.386;8.688;2023-04-01T11:37:40;2.08;;;0.60;;
24216;SDS011;12356;49.386;8.688;2023-04-01T11:43:01;0.68;;;0.68;;
24216;SDS011;12356;49.386;8.688;2023-04-01T11:46:19;2.50;;;0.90;;
24216;SDS011;12356;49.386;8.688;2023-04-01T11:49:02;2.65;;;0.85;;
24216;SDS011;12356;49.386;8.688;2023-04-01T11:54:20;2.05;;;0.93;;
24216;SDS011;12356;49.386;8.688;2023-04-01T12:05:41;1.50;;;0.70;;
24216;SDS011;12356;49.386;8.688;2023-04-01T12:08:56;1.73;;;0.77;;
24216;SDS011;12356;49.386;8.688;2023-04-01T12:14:39;0.50;;;0.50;;
24216;SDS011;12356;49.386;8.688;2023-04-01T12:22:49;1.17;;;0.60;;
24216;SDS011;12356;49.386;8.688;2023-04-01T12:31:47;1.45;;;0.65;;
24216;SDS011;12356;49.386;8.688;2023-04-01T12:43:28;0.88;;;0.50;;
24216;SDS011;12356;49.386;8.688;2023-04-01T12:46:24;1.10;;;0.70;;
24216;SDS011;12356;49.386;8.688;2023-04-01T12:49:18;0.80;;;0.50;;
24216;SDS011;12356;49.386;8.688;2023-04-01T12:52:48;0.57;;;0.50;;
24216;SDS011;12356;49.386;8.688;2023-04-01T12:55:30;5.55;;;0.75;;
24216;SDS011;12356;49.386;8.688;2023-04-01T12:58:59;0.55;;;0.50;;
24216;SDS011;12356;49.386;8.688;2023-04-01T13:01:29;1.17;;;0.70;;
24216;SDS011;12356;49.386;8.688;2023-04-01T13:12:50;1.33;;;0.65;;
24216;SDS011;12356;49.386;8.688;2023-04-01T13:15:55;2.58;;;0.60;;
24216;SDS011;12356;49.386;8.688;2023-04-01T13:18:39;1.40;;;0.70;;
24216;SDS011;12356;49.386;8.688;2023-04-01T13:21:26;1.35;;;0.60;;
24216;SDS011;12356;49.386;8.688;2023-04-01T13:30:19;3.40;;;0.52;;
24216;SDS011;12356;49.386;8.688;2023-04-01T13:42:11;1.50;;;0.77;;
24216;SDS011;12356;49.386;8.688;2023-04-01T13:44:48;0.75;;;0.65;;
24216;SDS011;12356;49.386;8.688;2023-04-01T13:47:38;1.42;;;0.63;;
24216;SDS011;12356;49.386;8.688;2023-04-01T13:51:01;1.95;;;0.70;;
24216;SDS011;12356;49.386;8.688;2023-04-01T13:53:25;1.17;;;0.60;;
24216;SDS011;12356;49.386;8.688;2023-04-01T14:05:38;0.88;;;0.88;;
24216;SDS011;12356;49.386;8.688;2023-04-01T14:10:51;1.58;;;0.73;;
24216;SDS011;12356;49.386;8.688;2023-04-01T14:16:23;1.70;;;0.75;;
24216;SDS011;12356;49.386;8.688;2023-04-01T14:19:22;2.47;;;0.63;;
24216;SDS011;12356;49.386;8.688;2023-04-01T14:22:38;0.95;;;0.60;;
24216;SDS011;12356;49.386;8.688;2023-04-01T14:25:21;1.00;;;0.70;;
24216;SDS011;12356;49.386;8.688;2023-04-01T14:33:57;0.85;;;0.70;;
24216;SDS011;12356;49.386;8.688;2023-04-01T14:39:43;1.42;;;0.70;;
24216;SDS011;12356;49.386;8.688;2023-04-01T14:48:57;1.73;;;0.90;;
24216;SDS011;12356;49.386;8.688;2023-04-01T14:51:43;2.28;;;0.90;;
24216;SDS011;12356;49.386;8.688;2023-04-01T14:54:19;1.23;;;0.65;;
24216;SDS011;12356;49.386;8.688;2023-04-01T14:59:45;1.90;;;1.00;;
24216;SDS011;12356;49.386;8.688;2023-04-01T15:19:15;1.30;;;0.88;;
24216;SDS011;12356;49.386;8.688;2023-04-01T15:30:32;8.63;;;1.27;;
24216;SDS011;12356;49.386;8.688;2023-04-01T15:33:08;3.60;;;0.82;;
24216;SDS011;12356;49.386;8.688;2023-04-01T15:35:58;5.38;;;0.90;;
24216;SDS011;12356;49.386;8.688;2023-04-01T15:39:09;1.15;;;0.80;;
24216;SDS011;12356;49.386;8.688;2023-04-01T15:44:41;2.53;;;1.08;;
24216;SDS011;12356;49.386;8.688;2023-04-01T15:50:00;2.95;;;0.88;;
24216;SDS011;12356;49.386;8.688;2023-04-01T15:53:03;3.10;;;0.93;;
24216;SDS011;12356;49.386;8.688;2023-04-01T15:55:43;4.80;;;1.10;;
24216;SDS011;12356;49.386;8.688;2023-04-01T16:01:15;3.38;;;1.23;;
24216;SDS011;12356;49.386;8.688;2023-04-01T16:07:10;2.63;;;1.13;;
24216;SDS011;12356;49.386;8.688;2023-04-01T16:16:46;2.08;;;0.90;;
24216;SDS011;12356;49.386;8.688;2023-04-01T16:19:39;2.38;;;1.00;;
24216;SDS011;12356;49.386;8.688;2023-04-01T16:26:05;2.28;;;1.00;;
24216;SDS011;12356;49.386;8.688;2023-04-01T16:28:27;1.85;;;0.93;;
24216;SDS011;12356;49.386;8.688;2023-04-01T16:31:04;2.03;;;0.90;;
24216;SDS011;12356;49.386;8.688;2023-04-01T16:36:35;2.00;;;0.90;;
24216;SDS011;12356;49.386;8.688;2023-04-01T16:47:40;1.15;;;0.60;;
24216;SDS011;12356;49.386;8.688;2023-04-01T16:50:22;1.63;;;0.63;;
24216;SDS011;12356;49.386;8.688;2023-04-01T16:58:25;0.52;;;0.50;;
24216;SDS011;12356;49.386;8.688;2023-04-01T17:01:05;0.70;;;0.50;;
24216;SDS011;12356;49.386;8.688;2023-04-01T17:03:45;1.73;;;0.60;;
24216;SDS011;12356;49.386;8.688;2023-04-01T17:06:23;1.50;;;0.60;;
24216;SDS011;12356;49.386;8.688;2023-04-01T17:09:20;1.33;;;0.75;;
24216;SDS011;12356;49.386;8.688;2023-04-01T17:14:35;1.80;;;0.70;;
24216;SDS011;12356;49.386;8.688;2023-04-01T17:17:54;1.73;;;0.90;;
24216;SDS011;12356;49.386;8.688;2023-04-01T17:20:35;1.10;;;0.70;;
24216;SDS011;12356;49.386;8.688;2023-04-01T17:23:20;1.63;;;0.80;;
24216;SDS011;12356;49.386;8.688;2023-04-01T17:32:28;1.05;;;0.80;;
24216;SDS011;12356;49.386;8.688;2023-04-01T17:35:32;1.33;;;0.80;;
24216;SDS011;12356;49.386;8.688;2023-04-01T17:38:48;3.67;;;0.93;;
24216;SDS011;12356;49.386;8.688;2023-04-01T17:41:28;2.88;;;0.93;;
24216;SDS011;12356;49.386;8.688;2023-04-01T17:47:00;2.05;;;0.77;;
24216;SDS011;12356;49.386;8.688;2023-04-01T17:49:59;1.60;;;0.90;;
24216;SDS011;12356;49.386;8.688;2023-04-01T17:58:44;2.05;;;0.80;;
24216;SDS011;12356;49.386;8.688;2023-04-01T18:04:05;0.95;;;0.70;;
24216;SDS011;12356;49.386;8.688;2023-04-01T18:06:47;1.00;;;0.70;;
24216;SDS011;12356;49.386;8.688;2023-04-01T18:12:27;1.60;;;0.70;;
24216;SDS011;12356;49.386;8.688;2023-04-01T18:18:07;0.90;;;0.80;;
24216;SDS011;12356;49.386;8.688;2023-04-01T18:23:32;1.10;;;0.70;;
24216;SDS011;12356;49.386;8.688;2023-04-01T18:26:13;1.20;;;0.90;;
24216;SDS011;12356;49.386;8.688;2023-04-01T18:29:12;2.25;;;1.10;;
24216;SDS011;12356;49.386;8.688;2023-04-01T18:31:49;4.35;;;2.13;;
24216;SDS011;12356;49.386;8.688;2023-04-01T18:39:57;2.55;;;1.25;;
24216;SDS011;12356;49.386;8.688;2023-04-01T18:42:50;2.08;;;1.00;;
24216;SDS011;12356;49.386;8.688;2023-04-01T18:45:49;1.08;;;0.90;;
24216;SDS011;12356;49.386;8.688;2023-04-01T18:48:49;3.58;;;1.67;;
24216;SDS011;12356;49.386;8.688;2023-04-01T18:54:33;1.73;;;1.17;;
24216;SDS011;12356;49.386;8.688;2023-04-01T18:57:27;2.60;;;1.30;;
24216;SDS011;12356;49.386;8.688;2023-04-01T19:02:55;2.25;;;0.90;;
24216;SDS011;12356;49.386;8.688;2023-04-01T19:05:39;1.25;;;1.00;;
24216;SDS011;12356;49.386;8.688;2023-04-01T19:08:45;2.13;;;1.20;;
24216;SDS011;12356;49.386;8.688;2023-04-01T19:11:17;1.33;;;1.08;;
24216;SDS011;12356;49.386;8.688;2023-04-01T19:19:38;1.77;;;1.02;;
24216;SDS011;12356;49.386;8.688;2023-04-01T19:28:32;1.80;;;1.00;;
24216;SDS011;12356;49.386;8.688;2023-04-01T19:31:47;2.08;;;1.15;;
24216;SDS011;12356;49.386;8.688;2023-04-01T19:34:27;4.15;;;1.40;;
24216;SDS011;12356;49.386;8.688;2023-04-01T19:46:04;5.13;;;2.58;;
24216;SDS011;12356;49.386;8.688;2023-04-01T19:52:08;5.90;;;2.95;;
24216;SDS011;12356;49.386;8.688;2023-04-01T19:57:46;5.47;;;2.50;;
24216;SDS011;12356;49.386;8.688;2023-04-01T20:00:35;4.50;;;2.28;;
24216;SDS011;12356;49.386;8.688;2023-04-01T20:06:16;2.30;;;1.55;;
24216;SDS011;12356;49.386;8.688;2023-04-01T20:11:56;1.80;;;1.35;;
24216;SDS011;12356;49.386;8.688;2023-04-01T20:17:13;2.03;;;1.25;;
24216;SDS011;12356;49.386;8.688;2023-04-01T20:22:51;1.55;;;1.30;;
24216;SDS011;12356;49.386;8.688;2023-04-01T20:25:38;2.78;;;1.25;;
24216;SDS011;12356;49.386;8.688;2023-04-01T20:33:37;4.97;;;1.95;;
24216;SDS011;12356;49.386;8.688;2023-04-01T20:36:30;2.67;;;1.67;;
24216;SDS011;12356;49.386;8.688;2023-04-01T20:39:43;3.55;;;1.88;;
24216;SDS011;12356;49.386;8.688;2023-04-01T20:51:23;2.05;;;1.00;;
24216;SDS011;12356;49.386;8.688;2023-04-01T20:59:35;3.15;;;1.50;;
24216;SDS011;12356;49.386;8.688;2023-04-01T21:02:16;2.38;;;1.20;;
24216;SDS011;12356;49.386;8.688;2023-04-01T21:07:51;2.45;;;1.52;;
24216;SDS011;12356;49.386;8.688;2023-04-01T21:10:37;3.53;;;1.80;;
24216;SDS011;12356;49.386;8.688;2023-04-01T21:13:29;3.15;;;1.95;;
24216;SDS011;12356;49.386;8.688;2023-04-01T21:19:36;3.35;;;2.10;;
24216;SDS011;12356;49.386;8.688;2023-04-01T21:21:46;5.03;;;2.05;;
24216;SDS011;12356;49.386;8.688;2023-04-01T21:24:30;3.28;;;1.80;;
24216;SDS011;12356;49.386;8.688;2023-04-01T21:27:34;3.95;;;1.90;;
24216;SDS011;12356;49.386;8.688;2023-04-01T21:35:45;3.22;;;1.60;;
24216;SDS011;12356;49.386;8.688;2023-04-01T21:41:47;3.28;;;1.50;;
24216;SDS011;12356;49.386;8.688;2023-04-01T21:53:15;4.75;;;1.45;;
24216;SDS011;12356;49.386;8.688;2023-04-01T21:56:09;3.25;;;1.40;;
24216;SDS011;12356;49.386;8.688;2023-04-01T21:59:16;2.85;;;1.30;;
24216;SDS011;12356;49.386;8.688;2023-04-01T22:04:56;2.33;;;1.20;;
24216;SDS011;12356;49.386;8.688;2023-04-01T22:07:43;3.45;;;1.15;;
24216;SDS011;12356;49.386;8.688;2023-04-01T22:13:24;2.35;;;1.30;;
24216;SDS011;12356;49.386;8.688;2023-04-01T22:16:11;3.30;;;1.40;;
24216;SDS011;12356;49.386;8.688;2023-04-01T22:19:00;1.65;;;1.13;;
24216;SDS011;12356;49.386;8.688;2023-04-01T22:21:49;3.97;;;1.30;;
24216;SDS011;12356;49.386;8.688;2023-04-01T22:24:55;2.70;;;1.30;;
24216;SDS011;12356;49.386;8.688;2023-04-01T22:27:49;2.97;;;1.40;;
24216;SDS011;12356;49.386;8.688;2023-04-01T22:37:01;2.28;;;1.35;;
24216;SDS011;12356;49.386;8.688;2023-04-01T22:40:07;2.08;;;1.20;;
24216;SDS011;12356;49.386;8.688;2023-04-01T22:42:42;3.17;;;1.30;;
24216;SDS011;12356;49.386;8.688;2023-04-01T22:53:59;3.38;;;1.40;;
24216;SDS011;12356;49.386;8.688;2023-04-01T22:56:37;3.55;;;1.40;;
24216;SDS011;12356;49.386;8.688;2023-04-01T23:04:58;2.25;;;1.40;;
24216;SDS011;12356;49.386;8.688;2023-04-01T23:07:41;5.05;;;1.58;;
24216;SDS011;12356;49.386;8.688;2023-04-01T23:10:25;2.30;;;1.30;;
24216;SDS011;12356;49.386;8.688;2023-04-01T23:13:11;3.22;;;1.30;;
24216;SDS011;12356;49.386;8.688;2023-04-01T23:15:48;4.10;;;1.50;;
24216;SDS011;12356;49.386;8.688;2023-04-01T23:21:26;2.00;;;1.05;;
24216;SDS011;12356;49.386;8.688;2023-04-01T23:27:16;3.70;;;1.27;;
24216;SDS011;12356;49.386;8.688;2023-04-01T23:35:49;3.17;;;1.10;;
24216;SDS011;12356;49.386;8.688;2023-04-01T23:38:21;4.35;;;1.40;;
24216;SDS011;12356;49.386;8.688;2023-04-01T23:40:54;6.57;;;1.48;;
24216;SDS011;12356;49.386;8.688;2023-04-01T23:43:29;6.10;;;1.48;;
24216;SDS011;12356;49.386;8.688;2023-04-01T23:46:02;2.88;;;1.00;;
24216;SDS011;12356;49.386;8.688;2023-04-01T23:48:39;3.58;;;1.25;;
24216;SDS011;12356;49.386;8.688;2023-04-01T23:51:27;4.07;;;1.42;;
24216;SDS011;12356;49.386;8.688;2023-04-01T23:54:03;5.20;;;1.20;;